Time;durP1;ratioP1;P1;durP2;ratioP2;P2;SDS_P1;SDS_P2;PMS_P1;PMS_P2;Temp;Humidity;BMP_temperature;BMP_pressure;BME280_temperature;BME280_humidity;BME280_pressure;Samples;Min_cycle;Max_cycle;Signal;HPM_P1;HPM_P2
2021/03/07 00:02:15;;;;;;;6.17;3.67;;;;;;;-5.73;64.81;96955.84;1754470;82;21845;-72
2021/03/07 00:04:43;;;;;;;7.57;4.03;;;;;;;-5.71;65.06;96955.55;1754093;82;21817;-72
2021/03/07 00:07:11;;;;;;;6.57;3.37;;;;;;;-5.76;65.30;96958.22;1754071;82;21832;-72
2021/03/07 00:09:39;;;;;;;8.57;4.20;;;;;;;-5.55;64.52;96953.97;1754245;82;21833;-72
2021/03/07 00:12:18;;;;;;;7.20;4.23;;;;;;;-5.55;64.52;96964.26;1754230;82;21832;-72
2021/03/07 00:14:46;;;;;;;9.37;4.50;;;;;;;-5.60;64.69;96956.24;1754314;82;22258;-72
2021/03/07 00:17:34;;;;;;;10.07;4.20;;;;;;;-5.66;65.56;96957.14;1754176;82;22239;-71
2021/03/07 00:20:11;;;;;;;10.10;3.50;;;;;;;-5.73;65.89;96949.81;1753462;81;21818;-71
2021/03/07 00:22:40;;;;;;;11.08;4.42;;;;;;;-5.73;65.49;96948.12;1754511;82;21136;-72
2021/03/07 00:25:11;;;;;;;6.83;3.33;;;;;;;-5.85;64.93;96949.89;1754168;82;21114;-72
2021/03/07 00:27:39;;;;;;;7.10;3.67;;;;;;;-5.90;64.62;96949.98;1754182;82;21850;-72
2021/03/07 00:30:13;;;;;;;4.73;2.73;;;;;;;-5.89;65.29;96959.50;1754262;82;21841;-72
2021/03/07 00:32:46;;;;;;;9.03;3.57;;;;;;;-6.01;66.99;96945.86;1750455;82;21803;-72
2021/03/07 00:35:15;;;;;;;9.87;4.27;;;;;;;-6.08;65.83;96919.27;1754468;82;21789;-72
2021/03/07 00:37:48;;;;;;;6.15;3.70;;;;;;;-5.91;65.70;96949.50;1754233;82;21782;-72
2021/03/07 00:40:16;;;;;;;6.47;3.63;;;;;;;-5.84;66.02;96942.70;1754210;82;21130;-72
2021/03/07 00:42:48;;;;;;;6.30;2.80;;;;;;;-5.75;65.16;96934.28;1726924;82;22279;-72
2021/03/07 00:45:21;;;;;;;5.53;3.42;;;;;;;-5.84;65.19;96930.25;1754128;82;21634;-71
2021/03/07 00:47:49;;;;;;;7.37;3.43;;;;;;;-6.00;66.28;96929.64;1754337;82;21165;-72
2021/03/07 00:50:21;;;;;;;5.87;3.70;;;;;;;-6.19;67.47;96921.13;1754231;82;21797;-72
2021/03/07 00:52:51;;;;;;;9.23;3.50;;;;;;;-6.17;66.82;96914.02;1739999;81;22393;-72
2021/03/07 00:55:20;;;;;;;8.17;3.20;;;;;;;-5.99;66.23;96918.20;1740361;81;21690;-72
2021/03/07 00:57:54;;;;;;;6.97;3.17;;;;;;;-5.99;66.23;96918.20;1735128;82;21602;-72
2021/03/07 01:00:30;;;;;;;5.10;2.93;;;;;;;-5.84;65.55;96916.11;1740241;82;21726;-71
2021/03/07 01:03:03;;;;;;;6.17;2.80;;;;;;;-5.65;65.11;96905.80;1729313;82;21821;-72
2021/03/07 01:05:32;;;;;;;4.97;3.07;;;;;;;-5.65;65.11;96905.80;1740105;81;21793;-72
2021/03/07 01:08:15;;;;;;;7.72;3.02;;;;;;;-5.55;64.82;96911.14;1734865;82;21820;-71
2021/03/07 01:10:45;;;;;;;6.97;2.80;;;;;;;-5.78;64.19;96910.06;1740097;81;21146;-72
2021/03/07 01:13:16;;;;;;;7.10;3.40;;;;;;;-5.78;64.19;96910.06;1740250;82;21657;-72
2021/03/07 01:15:45;;;;;;;7.15;2.92;;;;;;;-5.96;66.16;96909.39;1740302;82;21944;-72
2021/03/07 01:18:17;;;;;;;6.67;3.03;;;;;;;-5.99;65.40;96901.49;1740037;82;21712;-71
2021/03/07 01:20:47;;;;;;;3.27;2.37;;;;;;;-5.99;65.40;96901.49;1740468;81;21641;-71
2021/03/07 01:23:18;;;;;;;4.57;2.73;;;;;;;-6.34;66.23;96904.30;1740170;82;22205;-72
2021/03/07 01:25:46;;;;;;;3.83;2.30;;;;;;;-6.63;68.87;96891.66;1740126;81;21661;-71
2021/03/07 01:28:14;;;;;;;5.50;3.07;;;;;;;-6.51;67.43;96887.75;1740109;82;21587;-72
2021/03/07 01:30:43;;;;;;;8.83;2.93;;;;;;;-6.51;67.43;96887.75;1740072;81;21779;-72
2021/03/07 01:33:13;;;;;;;4.93;2.77;;;;;;;-6.38;67.14;96883.92;1740292;82;22012;-72
2021/03/07 01:35:41;;;;;;;5.00;2.67;;;;;;;-6.24;66.72;96876.27;1740353;82;21792;-71
2021/03/07 01:38:18;;;;;;;7.27;3.67;;;;;;;-6.16;66.10;96864.81;1738867;82;22200;-71
2021/03/07 01:40:51;;;;;;;5.90;3.43;;;;;;;-6.16;66.10;96864.81;1740242;82;21603;-70
2021/03/07 01:43:21;;;;;;;7.90;4.27;;;;;;;-6.23;67.12;96862.22;1740509;82;21643;-72
2021/03/07 01:45:55;;;;;;;7.27;3.80;;;;;;;-6.37;66.82;96866.86;1739709;82;21941;-71
2021/03/07 01:48:23;;;;;;;6.07;3.43;;;;;;;-6.37;66.82;96866.86;1739913;82;21860;-72
2021/03/07 01:50:53;;;;;;;7.00;3.70;;;;;;;-6.52;68.31;96847.88;1740341;81;21642;-71
2021/03/07 01:53:22;;;;;;;5.17;2.60;;;;;;;-6.44;67.52;96847.98;1754280;82;21781;-72
2021/03/07 01:55:52;;;;;;;3.67;2.27;;;;;;;-6.44;67.52;96847.98;1754027;82;21563;-71
2021/03/07 01:58:33;;;;;;;4.40;1.67;;;;;;;-6.56;67.97;96837.37;1754338;82;21929;-72
2021/03/07 02:01:06;;;;;;;5.03;2.52;;;;;;;-6.56;67.97;96837.37;1663826;86;21703;-71
2021/03/07 02:03:55;;;;;;;5.13;2.63;;;;;;;-6.63;67.61;96841.59;1780552;79;22711;-72
2021/03/07 02:06:23;;;;;;;6.03;2.70;;;;;;;-6.63;67.61;96841.59;1753950;82;21657;-72
2021/03/07 02:08:51;;;;;;;4.77;2.43;;;;;;;-6.51;67.87;96833.84;1754174;82;21571;-72
2021/03/07 02:11:20;;;;;;;1.90;1.43;;;;;;;-6.66;67.89;96844.37;1754246;82;21668;-72
2021/03/07 02:13:59;;;;;;;5.53;3.50;;;;;;;-6.66;67.89;96844.37;1748203;82;21639;-71
2021/03/07 02:16:28;;;;;;;5.47;3.13;;;;;;;-6.65;68.40;96842.28;1753989;81;21592;-72
2021/03/07 02:18:57;;;;;;;4.10;2.17;;;;;;;-6.60;68.56;96837.06;1754283;81;21601;-72
2021/03/07 02:21:35;;;;;;;5.13;2.83;;;;;;;-6.65;68.33;96832.94;1753863;82;21612;-72
2021/03/07 02:24:11;;;;;;;12.63;6.00;;;;;;;-6.73;69.36;96826.38;1724977;82;21570;-71
2021/03/07 02:26:48;;;;;;;10.43;3.57;;;;;;;-6.94;69.45;96830.95;1744311;82;21575;-72
2021/03/07 02:29:21;;;;;;;5.73;2.33;;;;;;;-6.94;69.45;96830.95;1753957;82;21987;-72
2021/03/07 02:31:58;;;;;;;4.40;2.20;;;;;;;-6.93;69.20;96830.56;1753948;81;21644;-72
2021/03/07 02:34:49;;;;;;;3.53;1.97;;;;;;;-6.98;69.29;96832.44;1754259;82;21633;-72
2021/03/07 02:37:19;;;;;;;4.07;2.60;;;;;;;-6.91;69.15;96831.16;1754064;82;21573;-72
2021/03/07 02:39:49;;;;;;;4.40;2.57;;;;;;;-6.77;69.05;96833.39;1754592;81;21627;-72
2021/03/07 02:42:22;;;;;;;4.40;2.43;;;;;;;-6.77;69.05;96833.39;1754231;82;21601;-72
2021/03/07 02:45:09;;;;;;;3.00;2.13;;;;;;;-6.75;68.86;96830.54;1751678;82;21590;-72
2021/03/07 02:47:52;;;;;;;3.70;2.60;;;;;;;-6.75;68.86;96830.54;1753151;81;21835;-72
2021/03/07 02:50:30;;;;;;;6.67;3.13;;;;;;;-6.78;69.23;96828.66;1753840;81;21499;-72
2021/03/07 02:53:26;;;;;;;5.93;2.90;;;;;;;-6.75;69.13;96825.41;1749132;82;21607;-72
2021/03/07 02:55:59;;;;;;;5.17;2.77;;;;;;;-6.75;69.07;96828.86;1754057;81;21526;-72
2021/03/07 02:58:30;;;;;;;4.25;2.60;;;;;;;-6.75;69.07;96828.86;1753997;82;21653;-72
2021/03/07 03:01:01;;;;;;;5.27;2.47;;;;;;;-6.74;68.68;96833.59;1754356;81;21141;-71
2021/03/07 03:03:40;;;;;;;2.97;1.90;;;;;;;-6.71;68.34;96827.77;1744454;81;21598;-72
2021/03/07 03:06:17;;;;;;;5.03;2.20;;;;;;;-6.71;68.34;96827.77;1740387;82;21571;-72
2021/03/07 03:08:49;;;;;;;5.67;2.60;;;;;;;-6.76;69.10;96823.20;1740888;82;21693;-72
2021/03/07 03:11:20;;;;;;;5.73;2.90;;;;;;;-6.83;68.57;96821.41;1740666;82;21543;-72
2021/03/07 03:13:51;;;;;;;4.43;2.53;;;;;;;-6.98;69.49;96826.03;1740480;82;21555;-72
2021/03/07 03:16:30;;;;;;;4.80;3.40;;;;;;;-6.94;70.04;96832.24;1738370;82;21653;-72
2021/03/07 03:19:04;;;;;;;5.07;3.07;;;;;;;-6.94;70.04;96832.24;1740426;82;21602;-72
2021/03/07 03:21:42;;;;;;;5.43;3.00;;;;;;;-6.98;70.20;96831.16;1740366;82;21556;-72
2021/03/07 03:24:18;;;;;;;5.33;2.53;;;;;;;-6.98;70.20;96831.16;1736111;82;21720;-72
2021/03/07 03:26:46;;;;;;;5.07;2.70;;;;;;;-6.93;69.55;96830.56;1740204;82;21690;-72
2021/03/07 03:29:33;;;;;;;3.27;2.37;;;;;;;-6.85;69.45;96817.48;1730406;82;21708;-72
2021/03/07 03:32:09;;;;;;;6.17;3.07;;;;;;;-6.90;70.38;96823.98;1739123;82;22085;-72
2021/03/07 03:34:38;;;;;;;5.40;2.40;;;;;;;-6.90;69.49;96821.78;1740254;82;21663;-72
2021/03/07 03:37:13;;;;;;;12.23;4.77;;;;;;;-6.97;69.98;96816.65;1738709;82;21509;-72
2021/03/07 03:39:44;;;;;;;5.10;2.37;;;;;;;-7.18;71.05;96821.22;1740427;82;21612;-71
2021/03/07 03:42:32;;;;;;;5.43;2.53;;;;;;;-7.04;69.95;96814.05;1702861;82;21570;-71
2021/03/07 03:45:01;;;;;;;5.00;3.13;;;;;;;-7.03;69.78;96808.15;1740263;82;21508;-72
2021/03/07 03:47:29;;;;;;;12.60;4.70;;;;;;;-7.03;69.78;96808.15;1740387;82;21555;-71
2021/03/07 03:49:59;;;;;;;11.63;5.83;;;;;;;-6.90;70.03;96815.00;1740252;82;21541;-71
2021/03/07 03:52:29;;;;;;;8.27;4.47;;;;;;;-6.88;70.14;96812.15;1739856;82;21983;-72
2021/03/07 03:55:08;;;;;;;7.47;3.37;;;;;;;-6.96;69.67;96805.19;1740249;82;21804;-71
2021/03/07 03:57:48;;;;;;;7.13;3.30;;;;;;;-6.80;69.29;96807.53;1740253;82;21656;-71
2021/03/07 04:00:27;;;;;;;4.80;2.30;;;;;;;-6.74;68.93;96804.08;1737562;82;21574;-72
2021/03/07 04:02:57;;;;;;;6.77;3.47;;;;;;;-6.74;68.93;96804.08;1740121;81;21590;-72
2021/03/07 04:05:28;;;;;;;4.47;1.93;;;;;;;-6.79;68.89;96808.89;1740350;82;22150;-72
2021/03/07 04:08:17;;;;;;;5.10;2.33;;;;;;;-6.85;68.70;96808.50;1740004;82;21534;-71
2021/03/07 04:10:52;;;;;;;5.67;2.60;;;;;;;-6.93;69.30;96804.50;1740224;82;22009;-71
2021/03/07 04:13:27;;;;;;;4.50;2.40;;;;;;;-7.05;69.04;96798.58;1740137;82;21674;-71
2021/03/07 04:15:56;;;;;;;6.20;3.60;;;;;;;-7.20;71.01;96801.86;1740065;82;21986;-71
2021/03/07 04:18:32;;;;;;;6.60;3.93;;;;;;;-7.22;70.75;96793.57;1738299;82;21594;-71
2021/03/07 04:21:01;;;;;;;7.13;4.53;;;;;;;-7.22;70.75;96793.57;1740198;82;22097;-71
2021/03/07 04:23:42;;;;;;;9.17;4.70;;;;;;;-7.19;71.21;96798.91;1739281;82;21695;-71
2021/03/07 04:26:11;;;;;;;9.00;4.37;;;;;;;-7.12;70.85;96793.81;1740337;82;21620;-72
2021/03/07 04:28:40;;;;;;;5.63;3.00;;;;;;;-7.07;70.47;96777.94;1740208;81;21548;-72
2021/03/07 04:31:09;;;;;;;5.67;3.03;;;;;;;-7.17;70.70;96790.92;1740153;82;21745;-71
2021/03/07 04:33:37;;;;;;;4.93;3.10;;;;;;;-7.26;70.98;96787.33;1740226;82;21668;-72
2021/03/07 04:36:07;;;;;;;7.27;4.30;;;;;;;-7.26;70.98;96787.33;1740387;82;21572;-71
2021/03/07 04:38:56;;;;;;;6.43;3.30;;;;;;;-7.36;70.94;96782.75;1740064;82;22008;-71
2021/03/07 04:41:32;;;;;;;6.13;3.50;;;;;;;-7.30;70.89;96781.51;1737021;82;21540;-71
2021/03/07 04:44:01;;;;;;;9.17;4.67;;;;;;;-7.17;70.74;96779.78;1740293;82;21702;-71
2021/03/07 04:46:29;;;;;;;10.93;5.70;;;;;;;-7.14;70.81;96772.29;1740375;82;21568;-71
2021/03/07 04:48:57;;;;;;;7.10;3.97;;;;;;;-7.20;70.92;96772.38;1740174;82;21544;-71
2021/03/07 04:51:25;;;;;;;7.87;4.47;;;;;;;-7.15;71.01;96768.84;1740075;82;21663;-71
2021/03/07 04:53:54;;;;;;;9.63;4.83;;;;;;;-7.09;70.63;96764.52;1740084;82;21551;-71
2021/03/07 04:56:30;;;;;;;7.10;4.37;;;;;;;-7.28;71.50;96770.97;1740194;81;21432;-72
2021/03/07 04:58:58;;;;;;;13.63;5.77;;;;;;;-7.36;71.57;96759.67;1740220;82;22091;-71
2021/03/07 05:01:28;;;;;;;8.93;3.70;;;;;;;-7.37;71.59;96753.67;1740368;82;21692;-71
2021/03/07 05:03:57;;;;;;;7.37;3.83;;;;;;;-7.35;71.66;96744.81;1748683;81;21989;-71
2021/03/07 05:06:29;;;;;;;5.93;3.87;;;;;;;-7.38;72.22;96742.02;1750062;82;21599;-71
2021/03/07 05:08:58;;;;;;;11.03;4.70;;;;;;;-7.26;71.47;96745.41;1754195;82;21544;-71
2021/03/07 05:11:30;;;;;;;9.33;4.67;;;;;;;-7.22;71.86;96744.84;1752050;82;21920;-71
2021/03/07 05:14:04;;;;;;;7.80;3.87;;;;;;;-6.97;70.89;96746.98;1754620;82;21523;-71
2021/03/07 05:16:33;;;;;;;9.03;4.37;;;;;;;-6.97;70.89;96746.98;1754324;81;22018;-71
2021/03/07 05:19:05;;;;;;;8.93;5.25;;;;;;;-7.00;71.00;96751.91;1749186;82;21498;-71
2021/03/07 05:21:33;;;;;;;15.80;7.37;;;;;;;-6.97;70.66;96764.94;1754383;81;21548;-71
2021/03/07 05:24:05;;;;;;;8.67;5.17;;;;;;;-7.05;71.26;96746.87;1749997;82;21496;-71
2021/03/07 05:26:33;;;;;;;11.30;6.10;;;;;;;-7.05;71.26;96746.87;1754267;82;21529;-71
2021/03/07 05:29:03;;;;;;;9.23;5.60;;;;;;;-6.99;71.32;96751.11;1725419;82;21535;-71
2021/03/07 05:31:50;;;;;;;9.63;5.63;;;;;;;-6.86;71.16;96751.94;1738091;82;21520;-71
2021/03/07 05:34:19;;;;;;;12.07;7.20;;;;;;;-6.91;71.24;96749.45;1754262;81;21527;-72
2021/03/07 05:36:47;;;;;;;14.50;7.70;;;;;;;-6.94;71.63;96746.69;1754582;81;21533;-71
2021/03/07 05:39:16;;;;;;;14.73;7.63;;;;;;;-6.92;71.99;96744.72;1753926;81;21553;-72
2021/03/07 05:41:48;;;;;;;13.30;7.77;;;;;;;-6.73;71.77;96737.83;1746870;82;21560;-71
2021/03/07 05:44:39;;;;;;;18.10;10.60;;;;;;;-6.59;70.88;96736.17;1743523;82;21615;-71
2021/03/07 05:47:09;;;;;;;21.97;10.53;;;;;;;-6.57;70.69;96726.50;1754177;82;21950;-71
2021/03/07 05:49:40;;;;;;;19.77;9.83;;;;;;;-6.56;71.19;96730.84;1754179;82;22040;-71
2021/03/07 05:52:10;;;;;;;27.43;13.23;;;;;;;-6.35;71.07;96722.73;1754262;82;21598;-71
2021/03/07 05:54:41;;;;;;;34.37;15.67;;;;;;;-6.22;70.79;96721.45;1723211;82;21647;-72
2021/03/07 05:57:16;;;;;;;39.30;16.37;;;;;;;-6.22;70.79;96721.45;1724332;82;21600;-71
2021/03/07 05:59:44;;;;;;;32.83;14.73;;;;;;;-6.20;70.84;96722.45;1754312;82;21640;-71
2021/03/07 06:02:19;;;;;;;27.50;12.07;;;;;;;-6.02;70.46;96728.23;1748689;82;22313;-72
2021/03/07 06:04:52;;;;;;;27.83;13.10;;;;;;;-5.94;70.59;96724.48;1742128;81;22385;-72
2021/03/07 06:07:22;;;;;;;25.83;12.53;;;;;;;-5.83;70.04;96721.25;1738448;82;21787;-72
2021/03/07 06:10:14;;;;;;;21.47;10.93;;;;;;;-5.69;70.70;96714.88;1740106;82;21826;-71
2021/03/07 06:12:47;;;;;;;;;;;;;;;-5.69;70.70;96714.88;1681742;85;21882;-71
2021/03/07 06:15:24;;;;;;;24.67;13.17;;;;;;;-5.51;71.94;96716.40;1780555;79;22746;-71
2021/03/07 06:17:52;;;;;;;21.23;10.73;;;;;;;-5.37;71.97;96721.48;1749443;81;22278;-71
2021/03/07 06:20:25;;;;;;;8.77;4.93;;;;;;;-5.22;71.42;96707.87;1753982;81;21819;-71
2021/03/07 06:23:00;;;;;;;15.15;7.53;;;;;;;-4.93;70.67;96695.81;1754102;82;21812;-71
2021/03/07 06:25:31;;;;;;;38.70;16.67;;;;;;;-4.54;70.15;96687.30;1753995;82;21113;-71
2021/03/07 06:28:01;;;;;;;13.07;6.33;;;;;;;-4.18;69.40;96685.03;1753957;82;21821;-71
2021/03/07 06:30:31;;;;;;;9.40;5.87;;;;;;;-3.70;65.26;96684.63;1754143;82;22262;-71
2021/03/07 06:33:01;;;;;;;23.87;9.80;;;;;;;-3.26;61.91;96680.91;1754233;81;21844;-71
2021/03/07 06:35:33;;;;;;;4.73;3.77;;;;;;;-2.87;58.93;96670.44;1754085;81;21811;-67
2021/03/07 06:38:20;;;;;;;8.73;4.50;;;;;;;-2.53;56.20;96675.09;1754236;82;21788;-71
2021/03/07 06:40:48;;;;;;;6.20;3.13;;;;;;;-2.23;55.37;96680.44;1754289;82;21168;-71
2021/03/07 06:43:25;;;;;;;6.07;3.47;;;;;;;-1.96;54.34;96674.81;1751667;82;21583;-71
2021/03/07 06:45:59;;;;;;;6.20;3.53;;;;;;;-1.77;52.52;96668.78;1752042;82;21147;-71
2021/03/07 06:48:35;;;;;;;3.53;2.63;;;;;;;-1.57;49.03;96662.80;1753956;82;21165;-71
2021/03/07 06:51:05;;;;;;;5.53;3.23;;;;;;;-1.44;49.94;96675.00;1754250;82;21128;-71
2021/03/07 06:53:44;;;;;;;2.57;1.63;;;;;;;-1.34;49.69;96663.83;1753826;82;21149;-71
2021/03/07 06:56:31;;;;;;;3.00;2.25;;;;;;;-1.22;48.72;96660.02;1749301;82;21157;-71
2021/03/07 06:59:25;;;;;;;7.10;4.60;;;;;;;-1.13;47.35;96658.72;1752932;82;21138;-71
2021/03/07 07:02:00;;;;;;;3.00;1.53;;;;;;;-1.01;47.15;96662.23;1694282;82;21124;-71
2021/03/07 07:04:43;;;;;;;3.53;3.00;;;;;;;-1.00;46.62;96660.13;1739901;82;21172;-71
2021/03/07 07:07:16;;;;;;;1.67;1.43;;;;;;;-0.89;45.72;96652.39;1753963;82;21113;-71
2021/03/07 07:09:47;;;;;;;4.93;3.03;;;;;;;-0.74;46.27;96653.87;1753861;82;21142;-71
2021/03/07 07:12:25;;;;;;;5.47;2.90;;;;;;;-0.66;46.54;96652.09;1753857;82;21149;-71
2021/03/07 07:15:14;;;;;;;6.37;4.30;;;;;;;-0.57;46.03;96647.68;1754502;81;21556;-71
2021/03/07 07:17:52;;;;;;;6.17;3.93;;;;;;;-0.46;45.54;96644.22;1754684;81;21280;-71
2021/03/07 07:20:24;;;;;;;15.93;8.73;;;;;;;-0.40;45.46;96642.28;1753719;82;21153;-71
2021/03/07 07:22:52;;;;;;;5.60;3.83;;;;;;;-0.23;46.56;96645.14;1754822;82;21160;-71
2021/03/07 07:25:22;;;;;;;6.53;3.77;;;;;;;-0.11;44.61;96649.94;1754103;82;21732;-71
2021/03/07 07:27:55;;;;;;;4.10;3.00;;;;;;;-0.10;44.84;96647.80;1754178;82;21599;-71
2021/03/07 07:30:38;;;;;;;13.80;7.67;;;;;;;-0.01;44.16;96636.08;1754488;81;21094;-71
2021/03/07 07:33:16;;;;;;;6.92;4.50;;;;;;;0.06;44.80;96639.81;1731853;82;21161;-71
2021/03/07 07:35:47;;;;;;;6.77;3.33;;;;;;;0.14;43.28;96632.31;1741938;82;21129;-71
2021/03/07 07:38:19;;;;;;;8.07;4.17;;;;;;;0.25;44.20;96636.19;1754357;82;21575;-71
2021/03/07 07:41:31;;;;;;;4.07;2.93;;;;;;;0.38;44.85;96633.25;1754169;82;21144;-71
2021/03/07 07:44:09;;;;;;;2.13;1.70;;;;;;;0.38;42.16;96628.48;1681193;85;21206;-71
2021/03/07 07:47:01;;;;;;;4.70;3.30;;;;;;;0.41;42.05;96614.30;1678532;85;21624;-71
2021/03/07 07:49:53;;;;;;;4.67;3.93;;;;;;;0.53;42.72;96617.35;1645595;87;21160;-71
2021/03/07 07:52:30;;;;;;;7.57;3.70;;;;;;;0.58;42.71;96617.49;1645626;87;21227;-72
2021/03/07 07:55:12;;;;;;;4.50;3.23;;;;;;;0.82;42.83;96605.81;1780539;79;22649;-72
2021/03/07 07:57:43;;;;;;;1.53;1.33;;;;;;;0.91;43.65;96611.73;1753978;81;21153;-72
2021/03/07 08:00:24;;;;;;;3.83;2.67;;;;;;;0.83;41.21;96607.17;1754066;82;21161;-73
2021/03/07 08:02:56;;;;;;;2.80;2.03;;;;;;;0.82;40.58;96607.98;1754259;82;21090;-72
2021/03/07 08:05:37;;;;;;;6.97;3.87;;;;;;;0.82;40.80;96596.30;1753987;82;21146;-72
2021/03/07 08:08:12;;;;;;;3.60;2.03;;;;;;;1.00;41.37;96596.05;1754017;82;21118;-71
2021/03/07 08:10:47;;;;;;;2.63;1.43;;;;;;;1.17;41.30;96594.45;1754193;82;21434;-72
2021/03/07 08:13:36;;;;;;;8.20;4.67;;;;;;;1.24;40.44;96589.93;1754172;82;21153;-72
2021/03/07 08:16:06;;;;;;;7.80;2.60;;;;;;;1.40;40.70;96593.48;1753128;82;21599;-72
2021/03/07 08:18:55;;;;;;;5.83;3.23;;;;;;;1.49;38.45;96583.39;1754380;81;21540;-72
2021/03/07 08:21:24;;;;;;;3.97;2.83;;;;;;;1.45;38.87;96581.94;1754122;82;21133;-72
2021/03/07 08:24:08;;;;;;;8.77;5.27;;;;;;;1.50;38.87;96576.05;1753956;81;21133;-72
2021/03/07 08:26:57;;;;;;;4.93;3.17;;;;;;;1.71;39.86;96574.95;1724862;82;21137;-72
2021/03/07 08:29:43;;;;;;;5.80;4.30;;;;;;;1.87;38.48;96578.94;1753875;82;21094;-72
2021/03/07 08:32:31;;;;;;;4.23;3.13;;;;;;;1.97;38.91;96574.48;1754191;82;21094;-72
2021/03/07 08:35:14;;;;;;;2.20;1.70;;;;;;;2.04;38.29;96566.41;1753974;81;21607;-72
2021/03/07 08:38:10;;;;;;;6.60;3.60;;;;;;;1.98;36.79;96576.66;1751688;82;21129;-72
2021/03/07 08:40:42;;;;;;;4.50;2.80;;;;;;;1.99;37.32;96567.60;1750109;82;21686;-72
2021/03/07 08:43:29;;;;;;;2.77;2.33;;;;;;;1.96;36.07;96573.99;1754079;82;21547;-72
2021/03/07 08:46:10;;;;;;;6.83;4.73;;;;;;;1.99;37.38;96564.09;1749326;82;21521;-72
2021/03/07 08:48:42;;;;;;;2.30;1.70;;;;;;;2.20;39.07;96556.05;1754020;82;21572;-72
2021/03/07 08:51:11;;;;;;;;;;;;;;;2.30;37.18;96556.36;1756496;81;21557;-72
2021/03/07 08:53:47;;;;;;;6.63;3.83;;;;;;;2.34;36.86;96550.41;1753230;81;20149;-72
2021/03/07 08:56:15;;;;;;;2.80;1.57;;;;;;;2.42;37.57;96549.71;1755239;82;21535;-72
2021/03/07 08:58:47;;;;;;;3.55;2.92;;;;;;;2.70;37.29;96552.27;1755315;81;21121;-72
2021/03/07 09:01:16;;;;;;;7.80;4.17;;;;;;;2.94;37.75;96545.50;1754736;81;21129;-72
2021/03/07 09:03:54;;;;;;;6.50;4.50;;;;;;;3.11;37.67;96538.13;1754654;81;21271;-72
2021/03/07 09:06:39;;;;;;;5.40;2.63;;;;;;;3.19;35.59;96536.58;1754230;81;21133;-72
2021/03/07 09:09:11;;;;;;;4.67;2.87;;;;;;;3.21;36.53;96526.20;1754216;81;21158;-72
2021/03/07 09:11:59;;;;;;;5.60;3.10;;;;;;;3.10;35.18;96536.38;1754337;81;21121;-72
2021/03/07 09:14:37;;;;;;;4.47;3.07;;;;;;;3.12;34.81;96532.05;1754261;81;21543;-72
2021/03/07 09:17:18;;;;;;;2.93;2.30;;;;;;;3.19;35.13;96531.36;1754155;81;21125;-72
2021/03/07 09:19:47;;;;;;;5.33;3.83;;;;;;;3.16;34.04;96529.98;1754331;82;21567;-72
2021/03/07 09:22:26;;;;;;;3.90;1.90;;;;;;;3.12;34.88;96526.83;1754400;81;21562;-72
2021/03/07 09:25:09;;;;;;;6.47;2.10;;;;;;;2.97;33.37;96522.14;1754032;81;21520;-72
2021/03/07 09:27:41;;;;;;;3.17;2.07;;;;;;;2.89;33.66;96517.55;1745201;82;21165;-72
2021/03/07 09:30:22;;;;;;;3.90;2.50;;;;;;;3.04;33.41;96524.03;1754172;82;21133;-73
2021/03/07 09:33:11;;;;;;;4.17;2.57;;;;;;;2.94;33.13;96507.70;1753779;81;21138;-72
2021/03/07 09:35:43;;;;;;;5.67;3.30;;;;;;;3.05;35.82;96508.00;1746294;82;21167;-72
2021/03/07 09:38:13;;;;;;;4.30;3.20;;;;;;;3.40;35.58;96498.42;1754371;81;21587;-72
2021/03/07 09:40:46;;;;;;;4.40;3.13;;;;;;;3.59;34.28;96493.63;1727156;82;21136;-72
2021/03/07 09:43:20;;;;;;;4.83;2.97;;;;;;;3.56;33.28;96485.30;1749466;82;21137;-72
2021/03/07 09:45:51;;;;;;;6.03;4.07;;;;;;;3.62;34.83;96496.29;1754293;81;21128;-72
2021/03/07 09:48:32;;;;;;;4.33;2.80;;;;;;;3.80;33.77;96499.30;1741922;82;21157;-72
2021/03/07 09:51:04;;;;;;;4.03;3.17;;;;;;;3.87;34.25;96482.05;1754374;81;21142;-72
2021/03/07 09:53:36;;;;;;;5.27;3.70;;;;;;;3.85;31.99;96476.79;1752304;81;21138;-72
2021/03/07 09:56:25;;;;;;;8.83;5.40;;;;;;;3.98;33.92;96478.36;1729085;82;21277;-72
2021/03/07 09:59:16;;;;;;;5.40;3.43;;;;;;;4.07;32.69;96472.91;1735002;82;21718;-72
2021/03/07 10:01:57;;;;;;;3.20;2.23;;;;;;;4.20;33.02;96477.95;1740272;82;21248;-72
2021/03/07 10:04:50;;;;;;;6.40;4.03;;;;;;;4.15;33.56;96463.92;1740385;82;21679;-72
2021/03/07 10:07:22;;;;;;;6.30;3.63;;;;;;;4.09;33.37;96468.61;1740142;82;21509;-72
2021/03/07 10:10:11;;;;;;;7.10;4.17;;;;;;;4.38;33.26;96456.53;1740294;82;21296;-72
2021/03/07 10:12:55;;;;;;;4.90;4.00;;;;;;;4.54;32.85;96459.03;1740332;82;21679;-72
2021/03/07 10:15:33;;;;;;;6.27;4.37;;;;;;;4.51;31.83;96455.03;1740083;82;21272;-72
2021/03/07 10:18:16;;;;;;;5.07;3.77;;;;;;;4.61;33.17;96450.45;1739905;81;21150;-72
2021/03/07 10:20:49;;;;;;;4.87;3.00;;;;;;;4.87;32.54;96448.30;1740138;82;21268;-72
2021/03/07 10:23:18;;;;;;;5.12;3.12;;;;;;;4.97;33.17;96437.56;1740562;82;21237;-72
2021/03/07 10:25:48;;;;;;;5.43;4.17;;;;;;;5.11;31.21;96438.65;1740023;82;21154;-70
2021/03/07 10:28:28;;;;;;;6.07;3.77;;;;;;;5.12;30.78;96431.27;1738081;82;21596;-70
2021/03/07 10:31:13;;;;;;;5.27;3.50;;;;;;;5.01;30.01;96434.55;1740416;82;21237;-72
2021/03/07 10:33:54;;;;;;;2.97;1.63;;;;;;;4.80;31.05;96435.09;1715067;82;21166;-72
2021/03/07 10:36:25;;;;;;;8.67;4.13;;;;;;;4.74;29.29;96426.72;1740159;81;21687;-72
2021/03/07 10:39:09;;;;;;;5.90;3.87;;;;;;;4.52;30.01;96429.38;1740287;82;21260;-72
2021/03/07 10:41:47;;;;;;;7.33;4.83;;;;;;;4.65;31.03;96418.27;1870317;76;23302;-70
2021/03/07 10:44:24;;;;;;;4.80;3.80;;;;;;;4.81;33.46;96408.95;1760420;81;21258;-71
2021/03/07 10:46:53;;;;;;;5.67;3.23;;;;;;;5.09;31.78;96404.16;1776945;81;21131;-71
2021/03/07 10:49:23;;;;;;;4.67;3.00;;;;;;;5.13;29.70;96388.55;1760536;81;21674;-70
2021/03/07 10:51:59;;;;;;;6.70;3.83;;;;;;;5.26;30.68;96384.38;1771916;81;21572;-70
2021/03/07 10:54:27;;;;;;;6.60;4.00;;;;;;;5.50;30.75;96379.93;1760576;81;21673;-70
2021/03/07 10:56:55;;;;;;;5.17;3.87;;;;;;;5.95;29.65;96371.38;1776821;81;21133;-70
2021/03/07 10:59:24;;;;;;;4.90;3.50;;;;;;;6.29;28.77;96365.62;1760580;81;21156;-70
2021/03/07 11:01:53;;;;;;;4.97;3.73;;;;;;;6.55;28.41;96365.03;1777030;81;21110;-70
2021/03/07 11:04:30;;;;;;;5.60;4.47;;;;;;;6.89;29.84;96352.19;1760360;81;21144;-70
2021/03/07 11:06:58;;;;;;;6.20;4.13;;;;;;;7.25;27.09;96350.25;1777420;81;21134;-70
2021/03/07 11:09:31;;;;;;;3.63;2.90;;;;;;;7.33;27.65;96347.27;1760343;81;21567;-70
2021/03/07 11:12:01;;;;;;;6.17;3.90;;;;;;;7.33;29.71;96345.05;1777022;81;21122;-70
2021/03/07 11:14:29;;;;;;;3.83;2.90;;;;;;;7.88;29.85;96330.00;1760431;81;21172;-70
2021/03/07 11:16:56;;;;;;;3.93;3.13;;;;;;;8.47;28.82;96317.90;1776889;81;21157;-70
2021/03/07 11:19:25;;;;;;;6.07;4.47;;;;;;;8.60;26.18;96318.38;1760624;81;21578;-70
2021/03/07 11:21:58;;;;;;;4.77;3.80;;;;;;;8.92;26.19;96303.91;1769562;81;21582;-70
2021/03/07 11:24:27;;;;;;;5.30;3.60;;;;;;;8.79;25.84;96302.14;1760338;81;21263;-70
2021/03/07 11:26:59;;;;;;;6.67;4.20;;;;;;;8.99;24.37;96298.17;1771901;81;21134;-70
2021/03/07 11:29:32;;;;;;;5.00;4.30;;;;;;;9.19;24.71;96288.48;1760499;81;21267;-70
2021/03/07 11:32:01;;;;;;;5.30;3.57;;;;;;;9.66;24.57;96287.92;1776914;81;21130;-70
2021/03/07 11:34:29;;;;;;;5.13;3.67;;;;;;;9.33;23.32;96276.63;1760375;81;21274;-70
2021/03/07 11:36:57;;;;;;;5.43;3.57;;;;;;;9.78;22.71;96271.16;1777112;81;21166;-70
2021/03/07 11:39:26;;;;;;;6.33;4.23;;;;;;;9.58;23.15;96269.52;1760435;81;21712;-70
2021/03/07 11:41:56;;;;;;;4.77;3.60;;;;;;;9.75;23.47;96258.87;1776745;81;21165;-70
2021/03/07 11:44:29;;;;;;;4.75;3.72;;;;;;;10.07;25.09;96250.80;1759212;81;21721;-70
2021/03/07 11:46:57;;;;;;;6.63;4.50;;;;;;;10.61;23.39;96251.80;1776952;81;21153;-70
2021/03/07 11:49:29;;;;;;;4.40;4.00;;;;;;;11.01;23.66;96246.13;1757160;81;21284;-70
2021/03/07 11:52:10;;;;;;;7.60;5.40;;;;;;;10.79;24.13;96238.42;1776165;81;21134;-70
2021/03/07 11:54:49;;;;;;;6.20;4.80;;;;;;;11.13;23.59;96237.22;1759845;81;21152;-70
2021/03/07 11:57:23;;;;;;;6.00;4.30;;;;;;;11.44;22.45;96225.43;1776311;81;21142;-70
2021/03/07 12:00:01;;;;;;;3.90;3.43;;;;;;;11.62;22.00;96214.20;1759750;81;21128;-70
2021/03/07 12:02:31;;;;;;;5.90;3.93;;;;;;;11.86;21.57;96207.70;1774873;81;21126;-70
2021/03/07 12:05:12;;;;;;;4.90;4.03;;;;;;;11.90;21.80;96194.91;1758191;81;21125;-70
2021/03/07 12:07:52;;;;;;;4.28;3.33;;;;;;;12.26;20.85;96197.45;1776862;81;21522;-70
2021/03/07 12:10:21;;;;;;;5.53;4.37;;;;;;;12.25;19.26;96187.77;1760097;81;21120;-70